sensor_id;sensor_type;location;lat;lon;timestamp;temperature;humidity
72712;SHT30;60828;40.292;17.998;2022-09-03T00:00:13;21.54;73.10
72712;SHT30;60828;40.292;17.998;2022-09-03T00:05:42;21.55;73.16
72712;SHT30;60828;40.292;17.998;2022-09-03T00:08:19;21.55;73.07
72712;SHT30;60828;40.292;17.998;2022-09-03T00:13:26;21.52;73.44
72712;SHT30;60828;40.292;17.998;2022-09-03T00:15:53;21.62;73.24
72712;SHT30;60828;40.292;17.998;2022-09-03T00:18:20;21.59;73.41
72712;SHT30;60828;40.292;17.998;2022-09-03T00:20:51;21.54;73.32
72712;SHT30;60828;40.292;17.998;2022-09-03T00:23:20;21.61;73.39
72712;SHT30;60828;40.292;17.998;2022-09-03T00:28:13;21.61;73.39
72712;SHT30;60828;40.292;17.998;2022-09-03T00:30:40;21.71;73.26
72712;SHT30;60828;40.292;17.998;2022-09-03T00:33:10;21.61;73.32
72712;SHT30;60828;40.292;17.998;2022-09-03T00:35:45;21.68;73.28
72712;SHT30;60828;40.292;17.998;2022-09-03T00:38:13;21.63;73.44
72712;SHT30;60828;40.292;17.998;2022-09-03T00:45:49;21.59;73.46
72712;SHT30;60828;40.292;17.998;2022-09-03T00:48:29;21.61;73.49
72712;SHT30;60828;40.292;17.998;2022-09-03T01:00:59;21.59;73.50
72712;SHT30;60828;40.292;17.998;2022-09-03T01:14:02;21.47;73.77
72712;SHT30;60828;40.292;17.998;2022-09-03T01:16:39;21.49;73.61
72712;SHT30;60828;40.292;17.998;2022-09-03T01:21:58;21.35;73.99
72712;SHT30;60828;40.292;17.998;2022-09-03T01:24:38;21.32;73.97
72712;SHT30;60828;40.292;17.998;2022-09-03T01:27:17;21.27;74.20
72712;SHT30;60828;40.292;17.998;2022-09-03T01:29:55;21.24;74.17
72712;SHT30;60828;40.292;17.998;2022-09-03T01:43:43;21.30;74.35
72712;SHT30;60828;40.292;17.998;2022-09-03T01:46:02;21.24;74.51
72712;SHT30;60828;40.292;17.998;2022-09-03T01:51:19;21.32;74.44
72712;SHT30;60828;40.292;17.998;2022-09-03T02:01:43;21.11;74.91
72712;SHT30;60828;40.292;17.998;2022-09-03T02:04:20;21.19;74.79
72712;SHT30;60828;40.292;17.998;2022-09-03T02:06:49;21.23;74.79
72712;SHT30;60828;40.292;17.998;2022-09-03T02:09:15;21.19;74.85
72712;SHT30;60828;40.292;17.998;2022-09-03T02:11:41;21.20;74.87
72712;SHT30;60828;40.292;17.998;2022-09-03T02:14:07;21.14;74.93
72712;SHT30;60828;40.292;17.998;2022-09-03T02:16:33;21.20;74.92
72712;SHT30;60828;40.292;17.998;2022-09-03T02:19:05;21.21;74.90
72712;SHT30;60828;40.292;17.998;2022-09-03T02:21:34;21.23;74.82
72712;SHT30;60828;40.292;17.998;2022-09-03T02:24:02;21.23;74.85
72712;SHT30;60828;40.292;17.998;2022-09-03T02:26:27;21.21;74.89
72712;SHT30;60828;40.292;17.998;2022-09-03T02:28:54;21.15;75.09
72712;SHT30;60828;40.292;17.998;2022-09-03T02:31:19;21.20;75.06
72712;SHT30;60828;40.292;17.998;2022-09-03T02:33:45;21.21;75.05
72712;SHT30;60828;40.292;17.998;2022-09-03T02:36:12;21.24;75.02
72712;SHT30;60828;40.292;17.998;2022-09-03T02:38:39;21.19;75.03
72712;SHT30;60828;40.292;17.998;2022-09-03T02:41:05;21.27;74.99
72712;SHT30;60828;40.292;17.998;2022-09-03T02:46:00;21.23;75.05
72712;SHT30;60828;40.292;17.998;2022-09-03T02:48:26;21.17;75.27
72712;SHT30;60828;40.292;17.998;2022-09-03T02:50:51;21.23;75.17
72712;SHT30;60828;40.292;17.998;2022-09-03T02:53:17;21.11;75.37
72712;SHT30;60828;40.292;17.998;2022-09-03T02:55:44;21.13;75.27
72712;SHT30;60828;40.292;17.998;2022-09-03T02:58:10;21.08;75.39
72712;SHT30;60828;40.292;17.998;2022-09-03T03:00:35;21.04;75.46
72712;SHT30;60828;40.292;17.998;2022-09-03T03:03:02;21.03;75.34
72712;SHT30;60828;40.292;17.998;2022-09-03T03:05:30;21.11;75.32
72712;SHT30;60828;40.292;17.998;2022-09-03T03:08:01;20.97;75.53
72712;SHT30;60828;40.292;17.998;2022-09-03T03:10:26;21.01;75.45
72712;SHT30;60828;40.292;17.998;2022-09-03T03:12:52;20.89;75.65
72712;SHT30;60828;40.292;17.998;2022-09-03T03:15:17;20.83;75.98
72712;SHT30;60828;40.292;17.998;2022-09-03T03:17:43;20.90;75.68
72712;SHT30;60828;40.292;17.998;2022-09-03T03:20:09;20.92;75.75
72712;SHT30;60828;40.292;17.998;2022-09-03T03:22:35;20.89;75.77
72712;SHT30;60828;40.292;17.998;2022-09-03T03:25:00;20.86;75.84
72712;SHT30;60828;40.292;17.998;2022-09-03T03:27:26;20.86;75.85
72712;SHT30;60828;40.292;17.998;2022-09-03T03:29:52;20.89;75.74
72712;SHT30;60828;40.292;17.998;2022-09-03T03:32:19;20.82;76.04
72712;SHT30;60828;40.292;17.998;2022-09-03T03:34:45;20.83;76.02
72712;SHT30;60828;40.292;17.998;2022-09-03T03:37:10;20.83;75.97
72712;SHT30;60828;40.292;17.998;2022-09-03T03:39:35;20.90;75.90
72712;SHT30;60828;40.292;17.998;2022-09-03T03:42:01;20.89;75.76
72712;SHT30;60828;40.292;17.998;2022-09-03T03:44:26;20.89;75.57
72712;SHT30;60828;40.292;17.998;2022-09-03T03:46:53;20.94;75.58
72712;SHT30;60828;40.292;17.998;2022-09-03T03:49:19;20.92;75.44
72712;SHT30;60828;40.292;17.998;2022-09-03T03:51:44;20.94;75.42
72712;SHT30;60828;40.292;17.998;2022-09-03T03:54:09;20.90;75.51
72712;SHT30;60828;40.292;17.998;2022-09-03T03:56:35;20.93;75.44
72712;SHT30;60828;40.292;17.998;2022-09-03T03:59:03;20.92;75.32
72712;SHT30;60828;40.292;17.998;2022-09-03T04:01:30;20.89;75.30
72712;SHT30;60828;40.292;17.998;2022-09-03T04:03:55;20.86;75.21
72712;SHT30;60828;40.292;17.998;2022-09-03T04:06:22;20.82;75.55
72712;SHT30;60828;40.292;17.998;2022-09-03T04:08:48;20.82;75.40
72712;SHT30;60828;40.292;17.998;2022-09-03T04:11:14;20.82;75.22
72712;SHT30;60828;40.292;17.998;2022-09-03T04:13:42;20.77;75.38
72712;SHT30;60828;40.292;17.998;2022-09-03T04:19:02;20.79;75.09
72712;SHT30;60828;40.292;17.998;2022-09-03T04:21:29;20.77;74.96
72712;SHT30;60828;40.292;17.998;2022-09-03T04:23:55;20.65;75.09
72712;SHT30;60828;40.292;17.998;2022-09-03T04:26:23;20.77;74.89
72712;SHT30;60828;40.292;17.998;2022-09-03T04:28:50;20.77;74.86
72712;SHT30;60828;40.292;17.998;2022-09-03T04:31:16;20.87;74.62
72712;SHT30;60828;40.292;17.998;2022-09-03T04:33:42;20.84;74.43
72712;SHT30;60828;40.292;17.998;2022-09-03T04:36:08;20.86;74.53
72712;SHT30;60828;40.292;17.998;2022-09-03T04:38:34;20.93;74.49
72712;SHT30;60828;40.292;17.998;2022-09-03T04:41:00;20.97;74.47
72712;SHT30;60828;40.292;17.998;2022-09-03T04:43:26;20.93;74.27
72712;SHT30;60828;40.292;17.998;2022-09-03T04:45:55;20.99;74.32
72712;SHT30;60828;40.292;17.998;2022-09-03T04:48:20;20.99;74.18
72712;SHT30;60828;40.292;17.998;2022-09-03T04:50:45;20.97;74.37
72712;SHT30;60828;40.292;17.998;2022-09-03T04:53:11;21.03;74.15
72712;SHT30;60828;40.292;17.998;2022-09-03T04:55:37;21.01;74.26
72712;SHT30;60828;40.292;17.998;2022-09-03T04:58:03;21.06;74.07
72712;SHT30;60828;40.292;17.998;2022-09-03T05:00:29;21.13;73.88
72712;SHT30;60828;40.292;17.998;2022-09-03T05:02:54;21.20;73.81
72712;SHT30;60828;40.292;17.998;2022-09-03T05:05:20;21.30;73.57
72712;SHT30;60828;40.292;17.998;2022-09-03T05:07:45;21.35;73.55
72712;SHT30;60828;40.292;17.998;2022-09-03T05:10:11;21.38;73.42
72712;SHT30;60828;40.292;17.998;2022-09-03T05:12:40;21.38;73.33
72712;SHT30;60828;40.292;17.998;2022-09-03T05:15:05;21.62;73.14
72712;SHT30;60828;40.292;17.998;2022-09-03T05:17:31;21.69;72.95
72712;SHT30;60828;40.292;17.998;2022-09-03T05:19:56;21.74;73.14
72712;SHT30;60828;40.292;17.998;2022-09-03T05:22:22;21.89;72.86
72712;SHT30;60828;40.292;17.998;2022-09-03T05:24:47;22.07;72.77
72712;SHT30;60828;40.292;17.998;2022-09-03T05:27:13;22.24;72.13
72712;SHT30;60828;40.292;17.998;2022-09-03T05:29:41;22.36;72.04
72712;SHT30;60828;40.292;17.998;2022-09-03T05:32:07;22.52;71.84
72712;SHT30;60828;40.292;17.998;2022-09-03T05:34:32;22.91;70.86
72712;SHT30;60828;40.292;17.998;2022-09-03T05:36:57;23.53;69.83
72712;SHT30;60828;40.292;17.998;2022-09-03T05:39:22;24.66;67.73
72712;SHT30;60828;40.292;17.998;2022-09-03T05:41:48;26.11;64.25
72712;SHT30;60828;40.292;17.998;2022-09-03T05:44:16;29.44;56.31
72712;SHT30;60828;40.292;17.998;2022-09-03T05:46:41;32.68;47.34
72712;SHT30;60828;40.292;17.998;2022-09-03T05:49:08;35.62;41.38
72712;SHT30;60828;40.292;17.998;2022-09-03T05:51:36;37.74;38.22
72712;SHT30;60828;40.292;17.998;2022-09-03T05:54:04;38.74;35.93
72712;SHT30;60828;40.292;17.998;2022-09-03T05:56:31;39.81;34.49
72712;SHT30;60828;40.292;17.998;2022-09-03T05:58:59;39.91;34.21
72712;SHT30;60828;40.292;17.998;2022-09-03T06:01:28;40.21;33.40
72712;SHT30;60828;40.292;17.998;2022-09-03T06:04:06;39.22;34.56
72712;SHT30;60828;40.292;17.998;2022-09-03T06:06:34;39.76;34.12
72712;SHT30;60828;40.292;17.998;2022-09-03T06:09:03;41.54;32.07
72712;SHT30;60828;40.292;17.998;2022-09-03T06:11:30;39.87;33.50
72712;SHT30;60828;40.292;17.998;2022-09-03T06:13:56;41.07;32.53
72712;SHT30;60828;40.292;17.998;2022-09-03T06:16:21;40.75;32.58
72712;SHT30;60828;40.292;17.998;2022-09-03T06:18:47;41.10;32.67
72712;SHT30;60828;40.292;17.998;2022-09-03T06:21:13;41.35;31.77
72712;SHT30;60828;40.292;17.998;2022-09-03T06:23:39;40.39;32.77
72712;SHT30;60828;40.292;17.998;2022-09-03T06:26:08;41.00;32.26
72712;SHT30;60828;40.292;17.998;2022-09-03T06:28:36;41.17;31.62
72712;SHT30;60828;40.292;17.998;2022-09-03T06:31:02;42.62;30.41
72712;SHT30;60828;40.292;17.998;2022-09-03T06:33:28;42.33;30.56
72712;SHT30;60828;40.292;17.998;2022-09-03T06:35:57;42.62;30.09
72712;SHT30;60828;40.292;17.998;2022-09-03T06:38:24;42.16;30.79
72712;SHT30;60828;40.292;17.998;2022-09-03T06:40:56;42.09;30.72
72712;SHT30;60828;40.292;17.998;2022-09-03T06:43:26;42.61;30.68
72712;SHT30;60828;40.292;17.998;2022-09-03T06:46:01;42.90;29.98
72712;SHT30;60828;40.292;17.998;2022-09-03T06:48:28;42.23;31.25
72712;SHT30;60828;40.292;17.998;2022-09-03T06:50:58;42.92;29.89
72712;SHT30;60828;40.292;17.998;2022-09-03T06:53:24;43.13;29.98
72712;SHT30;60828;40.292;17.998;2022-09-03T06:55:54;43.52;29.66
72712;SHT30;60828;40.292;17.998;2022-09-03T06:58:20;44.14;28.35
72712;SHT30;60828;40.292;17.998;2022-09-03T07:00:46;45.21;27.88
72712;SHT30;60828;40.292;17.998;2022-09-03T07:03:11;44.92;27.78
72712;SHT30;60828;40.292;17.998;2022-09-03T07:05:37;44.76;28.15
72712;SHT30;60828;40.292;17.998;2022-09-03T07:08:02;43.65;29.32
72712;SHT30;60828;40.292;17.998;2022-09-03T07:10:27;44.21;28.44
72712;SHT30;60828;40.292;17.998;2022-09-03T07:12:53;43.36;29.61
72712;SHT30;60828;40.292;17.998;2022-09-03T07:15:20;44.00;28.57
72712;SHT30;60828;40.292;17.998;2022-09-03T07:17:46;43.94;29.24
72712;SHT30;60828;40.292;17.998;2022-09-03T07:20:11;42.37;30.46
72712;SHT30;60828;40.292;17.998;2022-09-03T07:22:36;42.34;30.86
72712;SHT30;60828;40.292;17.998;2022-09-03T07:25:02;42.13;30.96
72712;SHT30;60828;40.292;17.998;2022-09-03T07:27:27;43.32;29.98
72712;SHT30;60828;40.292;17.998;2022-09-03T07:29:52;42.64;30.64
72712;SHT30;60828;40.292;17.998;2022-09-03T07:32:19;43.56;29.46
72712;SHT30;60828;40.292;17.998;2022-09-03T07:34:45;44.19;28.42
72712;SHT30;60828;40.292;17.998;2022-09-03T07:37:10;43.53;28.79
72712;SHT30;60828;40.292;17.998;2022-09-03T07:39:36;43.09;30.26
72712;SHT30;60828;40.292;17.998;2022-09-03T07:42:02;44.17;28.55
72712;SHT30;60828;40.292;17.998;2022-09-03T07:44:28;44.08;28.85
72712;SHT30;60828;40.292;17.998;2022-09-03T07:46:55;42.99;29.46
72712;SHT30;60828;40.292;17.998;2022-09-03T07:49:20;43.84;28.73
72712;SHT30;60828;40.292;17.998;2022-09-03T07:51:45;42.79;30.19
72712;SHT30;60828;40.292;17.998;2022-09-03T07:54:16;43.03;29.40
72712;SHT30;60828;40.292;17.998;2022-09-03T07:56:41;42.94;28.78
72712;SHT30;60828;40.292;17.998;2022-09-03T07:59:12;43.53;28.28
72712;SHT30;60828;40.292;17.998;2022-09-03T08:01:39;44.25;27.92
72712;SHT30;60828;40.292;17.998;2022-09-03T08:04:05;43.12;28.26
72712;SHT30;60828;40.292;17.998;2022-09-03T08:06:31;42.86;29.30
72712;SHT30;60828;40.292;17.998;2022-09-03T08:08:58;42.57;29.36
72712;SHT30;60828;40.292;17.998;2022-09-03T08:11:25;42.11;30.12
72712;SHT30;60828;40.292;17.998;2022-09-03T08:16:21;42.05;29.81
72712;SHT30;60828;40.292;17.998;2022-09-03T08:18:47;41.71;30.31
72712;SHT30;60828;40.292;17.998;2022-09-03T08:21:16;42.44;29.35
72712;SHT30;60828;40.292;17.998;2022-09-03T08:23:42;42.27;30.03
72712;SHT30;60828;40.292;17.998;2022-09-03T08:26:07;42.17;30.13
72712;SHT30;60828;40.292;17.998;2022-09-03T08:28:33;41.79;31.11
72712;SHT30;60828;40.292;17.998;2022-09-03T08:31:09;42.02;29.69
72712;SHT30;60828;40.292;17.998;2022-09-03T08:33:41;41.40;30.75
72712;SHT30;60828;40.292;17.998;2022-09-03T08:36:10;41.96;30.07
72712;SHT30;60828;40.292;17.998;2022-09-03T08:38:37;39.89;32.47
72712;SHT30;60828;40.292;17.998;2022-09-03T08:41:06;40.69;31.71
72712;SHT30;60828;40.292;17.998;2022-09-03T08:43:33;39.54;33.13
72712;SHT30;60828;40.292;17.998;2022-09-03T08:46:01;38.41;32.95
72712;SHT30;60828;40.292;17.998;2022-09-03T08:48:27;39.97;33.03
72712;SHT30;60828;40.292;17.998;2022-09-03T08:50:53;40.18;32.17
72712;SHT30;60828;40.292;17.998;2022-09-03T08:55:50;40.36;31.34
72712;SHT30;60828;40.292;17.998;2022-09-03T08:58:19;40.92;30.55
72712;SHT30;60828;40.292;17.998;2022-09-03T09:01:03;41.14;30.94
72712;SHT30;60828;40.292;17.998;2022-09-03T09:03:34;41.03;30.42
72712;SHT30;60828;40.292;17.998;2022-09-03T09:08:33;41.37;30.33
72712;SHT30;60828;40.292;17.998;2022-09-03T09:11:23;40.62;30.83
72712;SHT30;60828;40.292;17.998;2022-09-03T09:13:48;40.39;30.52
72712;SHT30;60828;40.292;17.998;2022-09-03T09:21:30;38.84;32.60
72712;SHT30;60828;40.292;17.998;2022-09-03T09:24:01;38.34;32.88
72712;SHT30;60828;40.292;17.998;2022-09-03T09:26:28;38.81;32.05
72712;SHT30;60828;40.292;17.998;2022-09-03T09:28:55;38.26;32.67
72712;SHT30;60828;40.292;17.998;2022-09-03T09:31:21;38.12;33.15
72712;SHT30;60828;40.292;17.998;2022-09-03T09:33:47;38.75;32.56
72712;SHT30;60828;40.292;17.998;2022-09-03T09:36:13;39.27;31.97
72712;SHT30;60828;40.292;17.998;2022-09-03T09:38:43;38.01;32.69
72712;SHT30;60828;40.292;17.998;2022-09-03T09:43:36;38.13;32.86
72712;SHT30;60828;40.292;17.998;2022-09-03T09:48:38;38.19;33.13
72712;SHT30;60828;40.292;17.998;2022-09-03T09:51:18;37.79;33.24
72712;SHT30;60828;40.292;17.998;2022-09-03T09:53:45;37.53;34.13
72712;SHT30;60828;40.292;17.998;2022-09-03T09:56:20;37.57;33.93
72712;SHT30;60828;40.292;17.998;2022-09-03T09:58:47;37.62;33.12
72712;SHT30;60828;40.292;17.998;2022-09-03T10:01:22;37.85;33.02
72712;SHT30;60828;40.292;17.998;2022-09-03T10:03:58;38.13;32.98
72712;SHT30;60828;40.292;17.998;2022-09-03T10:06:30;37.76;33.22
72712;SHT30;60828;40.292;17.998;2022-09-03T10:09:17;37.40;33.42
72712;SHT30;60828;40.292;17.998;2022-09-03T10:11:46;37.62;33.23
72712;SHT30;60828;40.292;17.998;2022-09-03T10:14:22;37.60;33.79
72712;SHT30;60828;40.292;17.998;2022-09-03T10:16:49;36.59;35.13
72712;SHT30;60828;40.292;17.998;2022-09-03T10:19:19;36.72;34.22
72712;SHT30;60828;40.292;17.998;2022-09-03T10:22:05;37.11;34.49
72712;SHT30;60828;40.292;17.998;2022-09-03T10:27:09;37.10;33.59
72712;SHT30;60828;40.292;17.998;2022-09-03T10:29:38;36.71;33.90
72712;SHT30;60828;40.292;17.998;2022-09-03T10:34:52;36.51;34.59
72712;SHT30;60828;40.292;17.998;2022-09-03T10:50:37;35.79;33.20
72712;SHT30;60828;40.292;17.998;2022-09-03T10:55:49;36.62;33.11
72712;SHT30;60828;40.292;17.998;2022-09-03T11:00:51;36.18;33.04
72712;SHT30;60828;40.292;17.998;2022-09-03T11:06:26;35.83;33.78
72712;SHT30;60828;40.292;17.998;2022-09-03T11:11:25;36.18;33.87
72712;SHT30;60828;40.292;17.998;2022-09-03T11:13:58;36.07;34.10
72712;SHT30;60828;40.292;17.998;2022-09-03T11:16:28;34.97;35.16
72712;SHT30;60828;40.292;17.998;2022-09-03T11:19:05;34.47;38.56
72712;SHT30;60828;40.292;17.998;2022-09-03T11:21:31;34.12;39.54
72712;SHT30;60828;40.292;17.998;2022-09-03T11:26:38;33.64;39.96
72712;SHT30;60828;40.292;17.998;2022-09-03T11:32:09;34.12;39.27
72712;SHT30;60828;40.292;17.998;2022-09-03T11:34:57;34.37;39.70
72712;SHT30;60828;40.292;17.998;2022-09-03T11:37:24;34.39;39.26
72712;SHT30;60828;40.292;17.998;2022-09-03T11:42:37;35.35;37.80
72712;SHT30;60828;40.292;17.998;2022-09-03T11:45:13;35.56;37.84
72712;SHT30;60828;40.292;17.998;2022-09-03T11:47:44;35.18;38.59
72712;SHT30;60828;40.292;17.998;2022-09-03T11:52:44;34.15;39.74
72712;SHT30;60828;40.292;17.998;2022-09-03T11:55:09;34.05;40.49
72712;SHT30;60828;40.292;17.998;2022-09-03T11:57:39;34.98;39.29
72712;SHT30;60828;40.292;17.998;2022-09-03T12:00:09;34.61;40.08
72712;SHT30;60828;40.292;17.998;2022-09-03T12:02:36;34.02;41.32
72712;SHT30;60828;40.292;17.998;2022-09-03T12:18:04;33.47;43.42
72712;SHT30;60828;40.292;17.998;2022-09-03T12:20:43;33.50;43.65
72712;SHT30;60828;40.292;17.998;2022-09-03T12:23:10;33.68;43.54
72712;SHT30;60828;40.292;17.998;2022-09-03T12:25:41;33.65;44.00
72712;SHT30;60828;40.292;17.998;2022-09-03T12:28:10;33.79;43.60
72712;SHT30;60828;40.292;17.998;2022-09-03T12:30:36;33.68;43.41
72712;SHT30;60828;40.292;17.998;2022-09-03T12:33:02;33.16;43.65
72712;SHT30;60828;40.292;17.998;2022-09-03T12:35:28;33.06;43.33
72712;SHT30;60828;40.292;17.998;2022-09-03T12:37:54;33.71;42.78
72712;SHT30;60828;40.292;17.998;2022-09-03T12:40:20;33.51;42.79
72712;SHT30;60828;40.292;17.998;2022-09-03T12:42:46;34.02;41.64
72712;SHT30;60828;40.292;17.998;2022-09-03T12:45:12;34.03;41.68
72712;SHT30;60828;40.292;17.998;2022-09-03T12:47:40;34.02;41.58
72712;SHT30;60828;40.292;17.998;2022-09-03T12:50:10;33.94;42.36
72712;SHT30;60828;40.292;17.998;2022-09-03T12:52:37;33.46;43.01
72712;SHT30;60828;40.292;17.998;2022-09-03T12:55:05;33.69;42.48
72712;SHT30;60828;40.292;17.998;2022-09-03T12:57:34;33.72;43.35
72712;SHT30;60828;40.292;17.998;2022-09-03T13:00:02;33.99;42.94
72712;SHT30;60828;40.292;17.998;2022-09-03T13:02:31;33.43;43.91
72712;SHT30;60828;40.292;17.998;2022-09-03T13:05:01;33.00;44.77
72712;SHT30;60828;40.292;17.998;2022-09-03T13:07:31;32.61;45.29
72712;SHT30;60828;40.292;17.998;2022-09-03T13:10:03;32.29;46.40
72712;SHT30;60828;40.292;17.998;2022-09-03T13:12:42;32.08;47.19
72712;SHT30;60828;40.292;17.998;2022-09-03T13:15:08;33.09;45.83
72712;SHT30;60828;40.292;17.998;2022-09-03T13:22:57;33.57;44.50
72712;SHT30;60828;40.292;17.998;2022-09-03T13:25:27;33.71;43.49
72712;SHT30;60828;40.292;17.998;2022-09-03T13:30:35;34.19;43.46
72712;SHT30;60828;40.292;17.998;2022-09-03T13:40:58;33.76;42.39
72712;SHT30;60828;40.292;17.998;2022-09-03T13:46:06;34.16;42.15
72712;SHT30;60828;40.292;17.998;2022-09-03T13:48:36;33.57;43.16
72712;SHT30;60828;40.292;17.998;2022-09-03T13:51:22;33.59;44.12
72712;SHT30;60828;40.292;17.998;2022-09-03T13:56:20;33.69;43.69
72712;SHT30;60828;40.292;17.998;2022-09-03T13:58:55;33.91;43.04
72712;SHT30;60828;40.292;17.998;2022-09-03T14:01:25;33.58;43.75
72712;SHT30;60828;40.292;17.998;2022-09-03T14:03:52;33.85;43.37
72712;SHT30;60828;40.292;17.998;2022-09-03T14:16:37;33.19;45.18
72712;SHT30;60828;40.292;17.998;2022-09-03T14:19:06;33.57;44.60
72712;SHT30;60828;40.292;17.998;2022-09-03T14:21:44;33.54;44.23
72712;SHT30;60828;40.292;17.998;2022-09-03T14:24:14;33.64;44.81
72712;SHT30;60828;40.292;17.998;2022-09-03T14:26:53;33.57;44.81
72712;SHT30;60828;40.292;17.998;2022-09-03T14:29:30;33.41;45.06
72712;SHT30;60828;40.292;17.998;2022-09-03T14:32:13;33.24;45.73
72712;SHT30;60828;40.292;17.998;2022-09-03T14:34:49;33.20;45.61
72712;SHT30;60828;40.292;17.998;2022-09-03T14:47:42;33.68;44.74
72712;SHT30;60828;40.292;17.998;2022-09-03T14:53:06;33.21;45.53
72712;SHT30;60828;40.292;17.998;2022-09-03T15:03:27;31.34;49.54
72712;SHT30;60828;40.292;17.998;2022-09-03T15:08:38;30.83;51.13
72712;SHT30;60828;40.292;17.998;2022-09-03T15:11:14;31.04;50.43
72712;SHT30;60828;40.292;17.998;2022-09-03T15:16:27;32.01;48.89
72712;SHT30;60828;40.292;17.998;2022-09-03T15:37:10;31.66;48.19
72712;SHT30;60828;40.292;17.998;2022-09-03T15:39:37;31.38;48.89
72712;SHT30;60828;40.292;17.998;2022-09-03T15:42:16;31.29;49.26
72712;SHT30;60828;40.292;17.998;2022-09-03T15:44:47;31.28;49.86
72712;SHT30;60828;40.292;17.998;2022-09-03T15:47:27;31.32;49.90
72712;SHT30;60828;40.292;17.998;2022-09-03T15:49:57;31.26;49.90
72712;SHT30;60828;40.292;17.998;2022-09-03T15:52:30;31.28;50.12
72712;SHT30;60828;40.292;17.998;2022-09-03T15:57:40;31.05;49.87
72712;SHT30;60828;40.292;17.998;2022-09-03T16:00:11;31.15;49.81
72712;SHT30;60828;40.292;17.998;2022-09-03T16:02:39;30.86;50.61
72712;SHT30;60828;40.292;17.998;2022-09-03T16:07:51;30.88;50.71
72712;SHT30;60828;40.292;17.998;2022-09-03T16:10:19;30.90;50.16
72712;SHT30;60828;40.292;17.998;2022-09-03T16:15:13;30.71;50.78
72712;SHT30;60828;40.292;17.998;2022-09-03T16:17:55;30.64;50.85
72712;SHT30;60828;40.292;17.998;2022-09-03T16:20:30;30.53;51.24
72712;SHT30;60828;40.292;17.998;2022-09-03T16:23:09;30.23;51.14
72712;SHT30;60828;40.292;17.998;2022-09-03T16:25:45;30.19;51.98
72712;SHT30;60828;40.292;17.998;2022-09-03T16:28:15;29.97;53.19
72712;SHT30;60828;40.292;17.998;2022-09-03T16:45:31;28.94;56.06
72712;SHT30;60828;40.292;17.998;2022-09-03T16:50:47;28.78;56.90
72712;SHT30;60828;40.292;17.998;2022-09-03T16:55:52;28.67;56.10
72712;SHT30;60828;40.292;17.998;2022-09-03T17:03:39;28.37;56.45
72712;SHT30;60828;40.292;17.998;2022-09-03T17:08:42;28.28;57.41
72712;SHT30;60828;40.292;17.998;2022-09-03T17:11:25;28.16;58.08
72712;SHT30;60828;40.292;17.998;2022-09-03T17:14:03;28.05;59.01
72712;SHT30;60828;40.292;17.998;2022-09-03T17:21:49;27.90;59.84
72712;SHT30;60828;40.292;17.998;2022-09-03T17:24:23;27.85;60.42
72712;SHT30;60828;40.292;17.998;2022-09-03T17:27:07;27.75;60.79
72712;SHT30;60828;40.292;17.998;2022-09-03T17:35:01;27.55;61.76
72712;SHT30;60828;40.292;17.998;2022-09-03T17:42:39;27.40;62.21
72712;SHT30;60828;40.292;17.998;2022-09-03T17:50:42;27.29;63.04
72712;SHT30;60828;40.292;17.998;2022-09-03T17:53:11;27.20;63.39
72712;SHT30;60828;40.292;17.998;2022-09-03T17:55:42;27.10;63.63
72712;SHT30;60828;40.292;17.998;2022-09-03T17:58:13;27.06;63.84
72712;SHT30;60828;40.292;17.998;2022-09-03T18:03:48;26.96;64.08
72712;SHT30;60828;40.292;17.998;2022-09-03T18:09:19;26.99;64.41
72712;SHT30;60828;40.292;17.998;2022-09-03T18:11:47;26.96;64.33
72712;SHT30;60828;40.292;17.998;2022-09-03T18:14:19;26.89;64.56
72712;SHT30;60828;40.292;17.998;2022-09-03T18:17:06;26.83;64.77
72712;SHT30;60828;40.292;17.998;2022-09-03T18:19:34;26.79;64.73
72712;SHT30;60828;40.292;17.998;2022-09-03T18:22:19;26.82;64.54
72712;SHT30;60828;40.292;17.998;2022-09-03T18:25:04;26.72;64.70
72712;SHT30;60828;40.292;17.998;2022-09-03T18:27:59;26.73;64.41
72712;SHT30;60828;40.292;17.998;2022-09-03T18:30:44;26.66;64.56
72712;SHT30;60828;40.292;17.998;2022-09-03T18:33:28;26.62;64.55
72712;SHT30;60828;40.292;17.998;2022-09-03T18:36:12;26.53;64.82
72712;SHT30;60828;40.292;17.998;2022-09-03T18:39:25;26.46;65.11
72712;SHT30;60828;40.292;17.998;2022-09-03T18:48:53;26.38;64.93
72712;SHT30;60828;40.292;17.998;2022-09-03T18:57:31;26.29;65.31
72712;SHT30;60828;40.292;17.998;2022-09-03T19:00:19;26.29;65.51
72712;SHT30;60828;40.292;17.998;2022-09-03T19:03:06;26.18;65.92
72712;SHT30;60828;40.292;17.998;2022-09-03T19:06:00;26.17;66.28
72712;SHT30;60828;40.292;17.998;2022-09-03T19:08:48;26.10;66.51
72712;SHT30;60828;40.292;17.998;2022-09-03T19:12:01;26.01;66.88
72712;SHT30;60828;40.292;17.998;2022-09-03T19:20:30;25.96;66.91
72712;SHT30;60828;40.292;17.998;2022-09-03T19:23:14;25.98;66.68
72712;SHT30;60828;40.292;17.998;2022-09-03T19:26:30;25.94;66.97
72712;SHT30;60828;40.292;17.998;2022-09-03T19:29:06;25.86;66.88
72712;SHT30;60828;40.292;17.998;2022-09-03T19:31:59;25.90;66.84
72712;SHT30;60828;40.292;17.998;2022-09-03T19:43:28;25.86;67.26
72712;SHT30;60828;40.292;17.998;2022-09-03T19:49:31;25.70;67.87
72712;SHT30;60828;40.292;17.998;2022-09-03T19:55:07;25.66;67.82
72712;SHT30;60828;40.292;17.998;2022-09-03T19:57:53;25.58;67.96
72712;SHT30;60828;40.292;17.998;2022-09-03T20:00:40;25.59;67.88
72712;SHT30;60828;40.292;17.998;2022-09-03T20:03:24;25.58;67.80
72712;SHT30;60828;40.292;17.998;2022-09-03T20:06:09;25.47;68.06
72712;SHT30;60828;40.292;17.998;2022-09-03T20:08:53;25.53;68.07
72712;SHT30;60828;40.292;17.998;2022-09-03T20:11:39;25.41;67.63
72712;SHT30;60828;40.292;17.998;2022-09-03T20:14:09;25.29;66.25
72712;SHT30;60828;40.292;17.998;2022-09-03T20:29:26;25.01;64.96
72712;SHT30;60828;40.292;17.998;2022-09-03T20:39:35;24.76;65.68
72712;SHT30;60828;40.292;17.998;2022-09-03T20:58:00;24.43;66.80
72712;SHT30;60828;40.292;17.998;2022-09-03T21:00:40;24.36;67.03
72712;SHT30;60828;40.292;17.998;2022-09-03T21:03:34;24.48;66.70
72712;SHT30;60828;40.292;17.998;2022-09-03T21:08:38;24.50;66.90
72712;SHT30;60828;40.292;17.998;2022-09-03T21:11:17;24.70;66.20
72712;SHT30;60828;40.292;17.998;2022-09-03T21:16:16;24.73;66.21
72712;SHT30;60828;40.292;17.998;2022-09-03T21:21:31;24.91;65.79
72712;SHT30;60828;40.292;17.998;2022-09-03T21:24:05;24.90;65.83
72712;SHT30;60828;40.292;17.998;2022-09-03T21:26:33;24.94;65.66